createdAt,value
2018-08-07T00:01:12.757Z,1.37
2018-08-07T00:03:41.185Z,1.17
2018-08-07T00:06:10.162Z,1.20
2018-08-07T00:08:38.999Z,1.30
2018-08-07T00:11:07.597Z,1.30
2018-08-07T00:13:35.693Z,1.30
2018-08-07T00:16:04.313Z,1.20
2018-08-07T00:18:32.555Z,1.60
2018-08-07T00:21:01.350Z,1.25
2018-08-07T00:23:29.506Z,1.15
2018-08-07T00:25:57.713Z,1.32
2018-08-07T00:28:26.541Z,1.37
2018-08-07T00:30:54.950Z,1.00
2018-08-07T00:33:23.265Z,1.30
2018-08-07T00:35:52.194Z,1.22
2018-08-07T00:38:20.417Z,1.32
2018-08-07T00:40:48.685Z,1.70
2018-08-07T00:43:17.856Z,1.25
2018-08-07T00:45:45.744Z,1.50
2018-08-07T00:48:14.425Z,1.55
2018-08-07T00:50:42.508Z,1.25
2018-08-07T00:53:12.102Z,1.22
2018-08-07T00:55:40.383Z,1.30
2018-08-07T00:58:08.666Z,1.57
2018-08-07T01:00:37.477Z,1.40
2018-08-07T01:03:05.642Z,1.00
2018-08-07T01:05:35.571Z,1.60
2018-08-07T01:08:04.410Z,1.60
2018-08-07T01:10:33.066Z,1.45
2018-08-07T01:13:01.184Z,1.40
2018-08-07T01:15:29.455Z,1.35
2018-08-07T01:17:57.684Z,1.30
2018-08-07T01:20:25.761Z,1.20
2018-08-07T01:22:55.017Z,1.50
2018-08-07T01:25:24.787Z,1.25
2018-08-07T01:27:52.783Z,1.20
2018-08-07T01:30:25.789Z,1.25
2018-08-07T01:32:56.012Z,1.20
2018-08-07T01:35:24.708Z,1.60
2018-08-07T01:37:53.404Z,1.35
2018-08-07T01:40:21.832Z,1.30
2018-08-07T01:42:50.823Z,1.50
2018-08-07T01:45:18.765Z,1.40
2018-08-07T01:47:47.134Z,1.45
2018-08-07T01:50:15.849Z,1.70
2018-08-07T01:52:43.842Z,1.37
2018-08-07T01:55:28.268Z,1.17
2018-08-07T01:57:56.720Z,1.27
2018-08-07T02:00:25.587Z,1.40
2018-08-07T02:02:54.605Z,1.30
2018-08-07T02:05:23.523Z,1.45
2018-08-07T02:07:51.777Z,1.40
2018-08-07T02:10:20.694Z,1.77
2018-08-07T02:12:48.865Z,1.25
2018-08-07T02:15:17.850Z,1.62
2018-08-07T02:17:47.112Z,1.42
2018-08-07T02:20:17.174Z,1.42
2018-08-07T02:22:45.979Z,1.92
2018-08-07T02:25:15.816Z,1.52
2018-08-07T02:27:53.938Z,1.50
2018-08-07T02:30:22.968Z,1.65
2018-08-07T02:32:52.948Z,1.52
2018-08-07T02:35:21.320Z,1.40
2018-08-07T02:37:49.394Z,1.45
2018-08-07T02:40:17.946Z,1.70
2018-08-07T02:42:47.239Z,2.25
2018-08-07T02:45:17.732Z,1.77
2018-08-07T02:47:47.269Z,1.80
2018-08-07T02:50:17.932Z,1.70
2018-08-07T02:52:46.395Z,1.67
2018-08-07T02:55:14.525Z,1.50
2018-08-07T02:57:44.909Z,1.55
2018-08-07T03:00:18.838Z,1.80
2018-08-07T03:02:47.950Z,1.75
2018-08-07T03:05:16.831Z,1.77
2018-08-07T03:07:45.466Z,1.47
2018-08-07T03:10:14.203Z,1.50
2018-08-07T03:12:43.190Z,1.55
2018-08-07T03:15:15.906Z,1.75
2018-08-07T03:17:45.697Z,1.90
2018-08-07T03:20:14.813Z,1.50
2018-08-07T03:22:42.909Z,1.77
2018-08-07T03:25:12.487Z,1.72
2018-08-07T03:27:41.333Z,1.35
2018-08-07T03:30:13.159Z,2.02
2018-08-07T03:32:42.137Z,1.67
2018-08-07T03:35:10.905Z,1.60
2018-08-07T03:37:40.276Z,1.60
2018-08-07T03:40:13.276Z,1.80
2018-08-07T03:42:42.258Z,1.65
2018-08-07T03:45:12.387Z,1.77
2018-08-07T03:47:40.608Z,1.92
2018-08-07T03:50:10.394Z,1.50
2018-08-07T03:52:38.613Z,1.52
2018-08-07T03:55:10.204Z,1.82
2018-08-07T03:57:39.909Z,1.70
2018-08-07T04:00:12.138Z,1.62
2018-08-07T04:02:40.254Z,1.42
2018-08-07T04:05:08.277Z,1.77
2018-08-07T04:07:37.345Z,1.70
2018-08-07T04:10:10.165Z,1.80
2018-08-07T04:12:39.284Z,1.60
2018-08-07T04:15:08.404Z,1.70
2018-08-07T04:17:36.613Z,1.50
2018-08-07T04:20:07.254Z,1.40
2018-08-07T04:22:37.232Z,2.10
2018-08-07T04:25:06.828Z,2.00
2018-08-07T04:27:35.207Z,1.65
2018-08-07T04:30:03.119Z,2.02
2018-08-07T04:32:31.957Z,1.67
2018-08-07T04:35:01.060Z,1.63
2018-08-07T04:37:28.984Z,2.08
2018-08-07T04:39:57.131Z,1.60
2018-08-07T04:42:26.093Z,1.57
2018-08-07T04:44:55.728Z,1.60
2018-08-07T04:47:24.545Z,1.60
2018-08-07T04:49:53.177Z,1.75
2018-08-07T04:52:22.053Z,1.72
2018-08-07T04:54:50.392Z,1.57
2018-08-07T04:57:18.546Z,1.62
2018-08-07T04:59:48.400Z,1.47
2018-08-07T05:02:16.541Z,1.77
2018-08-07T05:04:44.618Z,1.60
2018-08-07T05:07:13.489Z,1.77
2018-08-07T05:09:42.594Z,1.82
2018-08-07T05:12:11.916Z,2.00
2018-08-07T05:14:40.854Z,1.70
2018-08-07T05:17:11.036Z,1.77
2018-08-07T05:19:39.857Z,1.75
2018-08-07T05:22:08.079Z,1.92
2018-08-07T05:24:37.905Z,1.70
2018-08-07T05:27:06.790Z,1.60
2018-08-07T05:29:35.085Z,1.50
2018-08-07T05:32:03.440Z,1.50
2018-08-07T05:34:32.045Z,1.85
2018-08-07T05:37:00.429Z,1.42
2018-08-07T05:39:28.517Z,1.40
2018-08-07T05:41:56.757Z,1.82
2018-08-07T05:44:24.973Z,1.70
2018-08-07T05:46:54.561Z,1.50
2018-08-07T05:49:22.750Z,1.60
2018-08-07T05:51:51.636Z,1.62
2018-08-07T05:54:19.757Z,1.70
2018-08-07T05:56:49.521Z,1.57
2018-08-07T05:59:18.150Z,1.57
2018-08-07T06:01:46.741Z,1.50
2018-08-07T06:04:15.089Z,1.45
2018-08-07T06:06:42.964Z,1.70
2018-08-07T06:09:10.976Z,1.50
2018-08-07T06:11:39.718Z,1.50
2018-08-07T06:14:08.021Z,1.82
2018-08-07T06:16:36.281Z,1.70
2018-08-07T06:19:05.065Z,1.50
2018-08-07T06:21:33.761Z,1.50
2018-08-07T06:24:02.604Z,1.30
2018-08-07T06:26:31.231Z,1.40
2018-08-07T06:28:59.168Z,1.40
2018-08-07T06:31:28.230Z,1.70
2018-08-07T06:33:56.415Z,1.30
2018-08-07T06:36:24.625Z,1.60
2018-08-07T06:38:53.057Z,1.60
2018-08-07T06:41:21.729Z,1.47
2018-08-07T06:43:52.619Z,1.37
2018-08-07T06:46:20.954Z,1.25
2018-08-07T06:48:49.889Z,1.40
2018-08-07T06:51:19.194Z,1.37
2018-08-07T06:53:48.881Z,1.25
2018-08-07T06:56:17.785Z,1.20
2018-08-07T06:58:47.071Z,1.32
2018-08-07T07:01:15.173Z,1.60
2018-08-07T07:03:43.165Z,1.22
2018-08-07T07:06:11.693Z,1.20
2018-08-07T07:08:41.164Z,1.30
2018-08-07T07:11:09.505Z,1.27
2018-08-07T07:13:37.626Z,1.40
2018-08-07T07:16:05.879Z,1.12
2018-08-07T07:18:34.856Z,1.45
2018-08-07T07:21:03.053Z,1.65
2018-08-07T07:23:31.733Z,1.17
2018-08-07T07:26:00.446Z,1.30
2018-08-07T07:28:30.068Z,1.37
2018-08-07T07:30:58.920Z,1.40
2018-08-07T07:33:27.824Z,1.20
2018-08-07T07:35:56.557Z,1.50
2018-08-07T07:38:24.883Z,1.10
2018-08-07T07:40:53.837Z,1.32
2018-08-07T07:43:23.022Z,1.30
2018-08-07T07:45:51.195Z,1.55
2018-08-07T07:48:19.393Z,1.45
2018-08-07T07:50:48.979Z,1.32
2018-08-07T07:53:17.244Z,1.40
2018-08-07T07:55:45.640Z,1.20
2018-08-07T07:58:14.268Z,1.10
2018-08-07T08:00:42.498Z,1.22
2018-08-07T08:03:11.266Z,1.20
2018-08-07T08:05:40.055Z,1.32
2018-08-07T08:08:09.832Z,1.20
2018-08-07T08:10:38.348Z,1.30
2018-08-07T08:13:06.820Z,1.20
2018-08-07T08:15:35.818Z,1.57
2018-08-07T08:18:04.728Z,1.12
2018-08-07T08:20:33.661Z,1.20
2018-08-07T08:23:02.472Z,1.25
2018-08-07T08:25:32.188Z,1.67
2018-08-07T08:28:00.332Z,1.37
2018-08-07T08:30:28.840Z,1.20
2018-08-07T08:32:57.381Z,1.40
2018-08-07T08:35:25.630Z,1.30
2018-08-07T08:37:54.588Z,1.45
2018-08-07T08:40:24.255Z,1.20
2018-08-07T08:42:52.561Z,1.30
2018-08-07T08:45:22.810Z,1.35
2018-08-07T08:47:52.272Z,1.40
2018-08-07T08:50:21.341Z,1.62
2018-08-07T08:52:49.813Z,1.37
2018-08-07T08:55:17.945Z,1.30
2018-08-07T08:57:46.663Z,1.17
2018-08-07T09:00:23.171Z,1.15
2018-08-07T09:02:53.449Z,1.35
2018-08-07T09:05:21.780Z,1.40
2018-08-07T09:07:50.093Z,1.17
2018-08-07T09:10:20.983Z,1.17
2018-08-07T09:12:49.708Z,1.25
2018-08-07T09:15:18.158Z,1.12
2018-08-07T09:17:47.188Z,1.30
2018-08-07T09:20:18.777Z,1.17
2018-08-07T09:22:47.932Z,1.10
2018-08-07T09:25:16.971Z,1.10
2018-08-07T09:27:46.461Z,1.17
2018-08-07T09:30:19.156Z,1.27
2018-08-07T09:32:47.902Z,1.50
2018-08-07T09:35:17.824Z,1.17
2018-08-07T09:37:46.421Z,1.00
2018-08-07T09:40:15.801Z,1.30
2018-08-07T09:42:45.449Z,1.15
2018-08-07T09:45:16.101Z,1.12
2018-08-07T09:47:45.384Z,1.40
2018-08-07T09:50:14.838Z,1.25
2018-08-07T09:52:43.845Z,1.07
2018-08-07T09:55:12.721Z,1.07
2018-08-07T09:57:41.661Z,1.20
2018-08-07T10:00:11.895Z,1.10
2018-08-07T10:02:45.198Z,1.07
2018-08-07T10:05:13.439Z,1.10
2018-08-07T10:07:42.078Z,1.10
2018-08-07T10:10:12.724Z,0.85
2018-08-07T10:12:41.095Z,1.35
2018-08-07T10:15:09.997Z,1.10
2018-08-07T10:17:39.676Z,1.00
2018-08-07T10:20:09.250Z,1.10
2018-08-07T10:22:41.193Z,0.95
2018-08-07T10:25:12.112Z,1.20
2018-08-07T10:27:42.232Z,1.10
2018-08-07T10:30:19.354Z,1.00
2018-08-07T10:32:49.029Z,0.88
2018-08-07T10:35:21.117Z,1.10
2018-08-07T10:37:49.480Z,1.10
2018-08-07T10:40:23.589Z,0.90
2018-08-07T10:42:51.776Z,1.10
2018-08-07T10:45:22.551Z,1.00
2018-08-07T10:47:51.017Z,1.40
2018-08-07T10:50:29.375Z,1.20
2018-08-07T10:52:58.434Z,1.02
2018-08-07T10:55:27.477Z,1.00
2018-08-07T10:57:59.940Z,1.10
2018-08-07T11:00:30.352Z,1.20
2018-08-07T11:02:58.761Z,1.05
2018-08-07T11:05:28.625Z,1.30
2018-08-07T11:07:57.297Z,1.15
2018-08-07T11:10:26.409Z,1.42
2018-08-07T11:12:55.117Z,1.05
2018-08-07T11:15:25.069Z,1.50
2018-08-07T11:17:54.606Z,1.20
2018-08-07T11:20:24.899Z,1.30
2018-08-07T11:22:54.772Z,1.22
2018-08-07T11:25:24.628Z,1.22
2018-08-07T11:27:53.260Z,1.45
2018-08-07T11:30:24.466Z,1.65
2018-08-07T11:32:53.365Z,1.55
2018-08-07T11:35:23.317Z,1.70
2018-08-07T11:37:53.191Z,1.42
2018-08-07T11:40:22.773Z,1.60
2018-08-07T11:42:52.432Z,1.22
2018-08-07T11:45:22.888Z,2.08
2018-08-07T11:47:51.176Z,1.82
2018-08-07T11:50:20.879Z,1.60
2018-08-07T11:52:49.156Z,1.72
2018-08-07T11:55:18.706Z,1.67
2018-08-07T11:57:49.074Z,1.62
2018-08-07T12:00:21.564Z,1.72
2018-08-07T12:02:49.736Z,1.75
2018-08-07T12:05:18.981Z,1.60
2018-08-07T12:07:47.350Z,1.75
2018-08-07T12:10:17.150Z,1.60
2018-08-07T12:12:46.877Z,1.60
2018-08-07T12:15:19.088Z,1.60
2018-08-07T12:17:48.500Z,1.62
2018-08-07T12:20:16.956Z,1.57
2018-08-07T12:22:45.838Z,1.55
2018-08-07T12:25:15.284Z,1.60
2018-08-07T12:27:44.427Z,1.70
2018-08-07T12:30:15.897Z,1.50
2018-08-07T12:32:44.795Z,1.70
2018-08-07T12:35:13.024Z,1.75
2018-08-07T12:37:42.581Z,1.60
2018-08-07T12:40:15.716Z,1.45
2018-08-07T12:42:45.224Z,1.98
2018-08-07T12:45:15.776Z,1.52
2018-08-07T12:47:45.153Z,1.65
2018-08-07T12:50:14.440Z,1.70
2018-08-07T12:52:42.713Z,1.60
2018-08-07T12:55:12.472Z,1.72
2018-08-07T12:57:40.800Z,1.80
2018-08-07T13:00:26.021Z,1.62
2018-08-07T13:02:55.058Z,1.70
2018-08-07T13:05:23.980Z,1.90
2018-08-07T13:07:52.460Z,1.60
2018-08-07T13:10:22.533Z,1.90
2018-08-07T13:12:51.868Z,2.10
2018-08-07T13:15:21.180Z,1.77
2018-08-07T13:17:49.651Z,1.95
2018-08-07T13:20:17.637Z,2.05
2018-08-07T13:22:46.920Z,2.00
2018-08-07T13:25:17.548Z,2.00
2018-08-07T13:27:45.802Z,1.87
2018-08-07T13:30:16.306Z,2.20
2018-08-07T13:32:44.606Z,2.00
2018-08-07T13:35:13.165Z,1.82
2018-08-07T13:37:42.612Z,2.27
2018-08-07T13:40:13.212Z,2.20
2018-08-07T13:42:41.717Z,2.20
2018-08-07T13:45:13.281Z,2.20
2018-08-07T13:47:43.284Z,2.25
2018-08-07T13:50:14.272Z,2.47
2018-08-07T13:52:44.636Z,2.27
2018-08-07T13:55:14.149Z,2.10
2018-08-07T13:57:42.845Z,2.08
2018-08-07T14:00:14.140Z,1.95
2018-08-07T14:02:43.713Z,2.30
2018-08-07T14:05:12.100Z,2.80
2018-08-07T14:07:40.328Z,2.62
2018-08-07T14:10:10.401Z,2.15
2018-08-07T14:12:39.124Z,2.30
2018-08-07T14:15:08.440Z,2.40
2018-08-07T14:17:38.398Z,2.47
2018-08-07T14:20:09.046Z,2.35
2018-08-07T14:22:37.548Z,2.40
2018-08-07T14:25:09.905Z,2.62
2018-08-07T14:27:38.662Z,2.80
2018-08-07T14:30:15.372Z,2.33
2018-08-07T14:32:43.654Z,2.77
2018-08-07T14:35:11.599Z,2.50
2018-08-07T14:37:41.820Z,2.62
2018-08-07T14:40:12.945Z,2.45
2018-08-07T14:42:43.797Z,2.33
2018-08-07T14:45:13.464Z,2.55
2018-08-07T14:47:42.504Z,2.20
2018-08-07T14:50:12.225Z,2.58
2018-08-07T14:52:41.451Z,2.50
2018-08-07T14:55:10.724Z,2.70
2018-08-07T14:57:38.976Z,2.80
2018-08-07T15:00:12.064Z,2.30
2018-08-07T15:02:40.664Z,2.60
2018-08-07T15:05:09.676Z,2.77
2018-08-07T15:07:38.124Z,2.70
2018-08-07T15:10:11.356Z,2.45
2018-08-07T15:12:40.145Z,2.62
2018-08-07T15:15:11.106Z,2.67
2018-08-07T15:17:40.320Z,2.80
2018-08-07T15:20:10.470Z,2.77
2018-08-07T15:22:39.861Z,2.70
2018-08-07T15:25:10.648Z,2.50
2018-08-07T15:27:38.667Z,2.85
2018-08-07T15:30:09.808Z,2.60
2018-08-07T15:32:38.113Z,2.75
2018-08-07T15:35:06.984Z,2.70
2018-08-07T15:37:36.142Z,2.95
2018-08-07T15:40:04.822Z,2.90
2018-08-07T15:42:34.702Z,2.77
2018-08-07T15:45:03.151Z,2.80
2018-08-07T15:47:32.126Z,2.70
2018-08-07T15:50:01.886Z,3.20
2018-08-07T15:52:30.121Z,2.60
2018-08-07T15:55:00.141Z,2.45
2018-08-07T15:57:28.914Z,2.50
2018-08-07T15:59:57.349Z,2.58
2018-08-07T16:02:26.660Z,2.40
2018-08-07T16:04:55.091Z,2.55
2018-08-07T16:07:23.382Z,2.70
2018-08-07T16:09:52.117Z,2.80
2018-08-07T16:12:19.996Z,3.00
2018-08-07T16:14:48.355Z,3.08
2018-08-07T16:17:17.378Z,2.90
2018-08-07T16:19:46.253Z,2.98
2018-08-07T16:22:15.434Z,3.20
2018-08-07T16:24:44.002Z,3.12
2018-08-07T16:27:12.417Z,3.22
2018-08-07T16:29:40.386Z,2.98
2018-08-07T16:32:08.544Z,3.40
2018-08-07T16:34:36.480Z,2.85
2018-08-07T16:37:05.622Z,2.90
2018-08-07T16:39:33.937Z,3.02
2018-08-07T16:42:02.960Z,2.83
2018-08-07T16:44:31.322Z,3.33
2018-08-07T16:47:00.236Z,3.35
2018-08-07T16:49:28.381Z,2.90
2018-08-07T16:51:56.772Z,3.15
2018-08-07T16:54:24.850Z,3.20
2018-08-07T16:56:52.951Z,3.33
2018-08-07T16:59:21.709Z,2.92
2018-08-07T17:01:49.860Z,2.92
2018-08-07T17:04:18.883Z,2.90
2018-08-07T17:06:47.070Z,3.12
2018-08-07T17:09:15.409Z,3.02
2018-08-07T17:11:43.820Z,3.00
2018-08-07T17:14:13.206Z,3.02
2018-08-07T17:16:43.177Z,3.15
2018-08-07T17:19:11.455Z,3.20
2018-08-07T17:21:39.606Z,2.75
2018-08-07T17:24:07.740Z,3.10
2018-08-07T17:26:36.572Z,3.20
2018-08-07T17:29:05.633Z,3.20
2018-08-07T17:31:34.409Z,2.83
2018-08-07T17:34:02.817Z,3.02
2018-08-07T17:36:32.708Z,3.40
2018-08-07T17:39:01.157Z,2.90
2018-08-07T17:41:29.673Z,3.20
2018-08-07T17:43:57.879Z,3.20
2018-08-07T17:46:27.116Z,3.25
2018-08-07T17:48:55.141Z,3.20
2018-08-07T17:51:23.305Z,3.20
2018-08-07T17:53:51.666Z,3.30
2018-08-07T17:56:19.870Z,3.45
2018-08-07T17:58:48.862Z,3.08
2018-08-07T18:01:18.009Z,3.25
2018-08-07T18:03:47.115Z,3.22
2018-08-07T18:06:15.297Z,2.90
2018-08-07T18:08:43.552Z,4.03
2018-08-07T18:11:11.412Z,4.33
2018-08-07T18:13:39.872Z,3.75
2018-08-07T18:16:08.057Z,3.22
2018-08-07T18:18:37.053Z,3.05
2018-08-07T18:21:05.393Z,3.40
2018-08-07T18:23:34.401Z,3.45
2018-08-07T18:26:02.567Z,3.40
2018-08-07T18:28:30.897Z,3.20
2018-08-07T18:30:58.804Z,3.40
2018-08-07T18:33:27.294Z,3.30
2018-08-07T18:35:56.367Z,3.50
2018-08-07T18:38:25.502Z,3.20
2018-08-07T18:40:53.807Z,3.20
2018-08-07T18:43:21.669Z,12.13
2018-08-07T18:45:49.900Z,15.23
2018-08-07T18:48:18.377Z,8.53
2018-08-07T18:50:46.669Z,7.10
2018-08-07T18:53:16.317Z,5.40
2018-08-07T18:55:44.364Z,5.85
2018-08-07T18:58:12.897Z,5.90
2018-08-07T19:00:42.025Z,4.72
2018-08-07T19:03:10.502Z,4.55
2018-08-07T19:05:38.621Z,5.12
2018-08-07T19:08:06.739Z,5.12
2018-08-07T19:10:35.505Z,4.28
2018-08-07T19:13:03.797Z,3.92
2018-08-07T19:15:31.893Z,3.67
2018-08-07T19:18:01.725Z,3.80
2018-08-07T19:20:29.853Z,3.70
2018-08-07T19:22:58.455Z,4.00
2018-08-07T19:25:27.227Z,3.65
2018-08-07T19:27:55.676Z,3.80
2018-08-07T19:30:25.240Z,3.83
2018-08-07T19:32:53.512Z,3.87
2018-08-07T19:35:21.790Z,3.85
2018-08-07T19:37:51.425Z,3.95
2018-08-07T19:40:20.165Z,3.90
2018-08-07T19:42:49.413Z,4.15
2018-08-07T19:45:17.784Z,3.75
2018-08-07T19:47:46.280Z,4.00
2018-08-07T19:50:16.569Z,3.98
2018-08-07T19:52:44.796Z,3.92
2018-08-07T19:55:14.329Z,3.70
2018-08-07T19:57:42.475Z,3.58
2018-08-07T20:00:14.345Z,3.70
2018-08-07T20:02:42.380Z,3.55
2018-08-07T20:05:10.565Z,3.90
2018-08-07T20:07:38.689Z,3.75
2018-08-07T20:10:08.526Z,3.70
2018-08-07T20:12:36.617Z,4.12
2018-08-07T20:15:07.233Z,3.67
2018-08-07T20:17:36.168Z,3.67
2018-08-07T20:20:06.526Z,3.60
